createdAt,value
2018-05-18T00:01:57.516Z,84.70
2018-05-18T00:04:25.047Z,85.10
2018-05-18T00:06:52.604Z,85.50
2018-05-18T00:09:20.149Z,85.70
2018-05-18T00:11:47.701Z,86.10
2018-05-18T00:14:15.229Z,86.40
2018-05-18T00:16:43.533Z,86.60
2018-05-18T00:19:11.093Z,86.60
2018-05-18T00:21:38.629Z,86.70
2018-05-18T00:24:06.245Z,87.10
2018-05-18T00:26:34.503Z,87.00
2018-05-18T00:29:02.818Z,87.30
2018-05-18T00:31:30.353Z,87.30
2018-05-18T00:33:57.897Z,87.60
2018-05-18T00:36:25.428Z,87.90
2018-05-18T00:38:52.977Z,88.20
2018-05-18T00:41:20.509Z,87.90
2018-05-18T00:43:48.059Z,88.20
2018-05-18T00:46:15.594Z,88.90
2018-05-18T00:48:43.150Z,88.80
2018-05-18T00:51:10.694Z,88.70
2018-05-18T00:53:38.249Z,88.80
2018-05-18T00:56:05.794Z,89.10
2018-05-18T00:58:33.357Z,89.00
2018-05-18T01:01:00.889Z,89.00
2018-05-18T01:03:29.201Z,89.10
2018-05-18T01:05:56.721Z,89.10
2018-05-18T01:08:24.280Z,89.60
2018-05-18T01:10:51.823Z,89.50
2018-05-18T01:13:19.373Z,89.50
2018-05-18T01:15:46.953Z,89.50
2018-05-18T01:18:15.982Z,90.00
2018-05-18T01:20:43.519Z,90.00
2018-05-18T01:23:11.079Z,89.80
2018-05-18T01:25:38.626Z,90.10
2018-05-18T01:28:06.944Z,90.10
2018-05-18T01:30:34.485Z,90.20
2018-05-18T01:33:02.034Z,90.40
2018-05-18T01:35:29.590Z,90.10
2018-05-18T01:37:57.120Z,90.40
2018-05-18T01:40:24.664Z,90.40
2018-05-18T01:42:52.197Z,90.50
2018-05-18T01:45:19.751Z,90.40
2018-05-18T01:47:47.290Z,90.60
2018-05-18T01:50:14.848Z,90.50
2018-05-18T01:52:42.384Z,90.50
2018-05-18T01:55:10.151Z,90.80
2018-05-18T01:57:37.753Z,90.60
2018-05-18T02:00:05.309Z,90.60
2018-05-18T02:02:32.843Z,90.80
2018-05-18T02:05:00.439Z,91.00
2018-05-18T02:07:27.963Z,91.00
2018-05-18T02:09:55.502Z,91.00
2018-05-18T02:12:23.019Z,91.00
2018-05-18T02:14:50.572Z,90.90
2018-05-18T02:17:18.097Z,91.60
2018-05-18T02:19:45.634Z,91.60
2018-05-18T02:22:13.165Z,91.70
2018-05-18T02:24:40.695Z,91.70
2018-05-18T02:27:08.236Z,91.90
2018-05-18T02:29:35.773Z,91.70
2018-05-18T02:32:03.299Z,91.80
2018-05-18T02:34:31.608Z,91.70
2018-05-18T02:36:59.132Z,91.70
2018-05-18T02:39:26.698Z,91.80
2018-05-18T02:41:54.986Z,91.70
2018-05-18T02:44:22.520Z,91.70
2018-05-18T02:46:50.850Z,91.80
2018-05-18T02:49:18.377Z,91.70
2018-05-18T02:51:46.668Z,92.00
2018-05-18T02:54:14.189Z,91.90
2018-05-18T02:56:42.489Z,92.10
2018-05-18T02:59:10.016Z,92.00
2018-05-18T03:01:37.547Z,92.20
2018-05-18T03:04:05.059Z,92.10
2018-05-18T03:06:32.589Z,92.30
2018-05-18T03:09:00.109Z,92.30
2018-05-18T03:11:27.669Z,92.30
2018-05-18T03:13:55.197Z,92.40
2018-05-18T03:16:22.743Z,92.50
2018-05-18T03:18:50.281Z,92.50
2018-05-18T03:21:18.606Z,92.30
2018-05-18T03:23:46.125Z,92.30
2018-05-18T03:26:14.424Z,92.70
2018-05-18T03:28:41.959Z,92.60
2018-05-18T03:31:10.261Z,92.60
2018-05-18T03:33:37.785Z,92.50
2018-05-18T03:36:06.103Z,92.30
2018-05-18T03:38:33.643Z,92.30
2018-05-18T03:41:01.185Z,92.30
2018-05-18T03:43:29.468Z,92.60
2018-05-18T03:45:57.765Z,92.70
2018-05-18T03:48:25.299Z,92.60
2018-05-18T03:50:53.699Z,92.20
2018-05-18T03:53:21.147Z,92.20
2018-05-18T03:55:48.707Z,92.30
2018-05-18T03:58:16.225Z,92.20
2018-05-18T04:00:43.792Z,92.10
2018-05-18T04:03:23.910Z,92.30
2018-05-18T04:06:03.193Z,92.30
2018-05-18T04:08:52.143Z,92.10
2018-05-18T04:11:19.775Z,92.10
2018-05-18T04:13:47.299Z,91.50
2018-05-18T04:16:14.816Z,91.50
2018-05-18T04:18:42.364Z,91.10
2018-05-18T04:21:09.897Z,91.10
2018-05-18T04:23:37.445Z,90.80
2018-05-18T04:26:04.968Z,90.70
2018-05-18T04:28:32.508Z,89.30
2018-05-18T04:31:00.799Z,87.20
2018-05-18T04:33:28.348Z,87.10
2018-05-18T04:35:55.897Z,87.70
2018-05-18T04:38:23.443Z,86.50
2018-05-18T04:40:50.970Z,86.20
2018-05-18T04:43:18.535Z,85.50
2018-05-18T04:45:46.048Z,84.50
2018-05-18T04:48:13.591Z,83.40
2018-05-18T04:50:41.128Z,82.90
2018-05-18T04:53:09.437Z,82.30
2018-05-18T04:55:36.963Z,82.20
2018-05-18T04:58:04.774Z,82.60
2018-05-18T05:00:32.302Z,82.70
2018-05-18T05:02:59.839Z,82.60
2018-05-18T05:05:27.383Z,81.30
2018-05-18T05:07:54.915Z,81.20
2018-05-18T05:10:22.436Z,81.00
2018-05-18T05:12:49.990Z,80.50
2018-05-18T05:15:18.285Z,80.00
2018-05-18T05:17:45.896Z,80.70
2018-05-18T05:20:13.370Z,78.90
2018-05-18T05:22:41.659Z,77.00
2018-05-18T05:25:09.208Z,76.90
2018-05-18T05:27:37.497Z,76.60
2018-05-18T05:30:05.084Z,76.40
2018-05-18T05:32:32.635Z,76.90
2018-05-18T05:35:00.177Z,76.80
2018-05-18T05:37:27.706Z,76.60
2018-05-18T05:39:56.011Z,75.90
2018-05-18T05:42:23.540Z,75.90
2018-05-18T05:44:51.856Z,76.20
2018-05-18T05:47:19.375Z,76.20
2018-05-18T05:49:47.690Z,74.60
2018-05-18T05:52:15.208Z,74.60
2018-05-18T05:54:43.531Z,72.60
2018-05-18T05:57:11.060Z,72.50
2018-05-18T05:59:39.370Z,72.60
2018-05-18T06:02:06.893Z,72.60
2018-05-18T06:04:34.460Z,72.00
2018-05-18T06:07:02.011Z,72.90
2018-05-18T06:09:29.575Z,71.70
2018-05-18T06:11:57.111Z,70.90
2018-05-18T06:14:25.434Z,73.70
2018-05-18T06:16:52.960Z,73.70
2018-05-18T06:19:20.509Z,72.40
2018-05-18T06:21:48.027Z,72.30
2018-05-18T06:24:15.560Z,71.00
2018-05-18T06:26:43.087Z,71.90
2018-05-18T06:29:10.641Z,71.60
2018-05-18T06:31:38.169Z,69.90
2018-05-18T06:34:05.752Z,69.40
2018-05-18T06:36:33.270Z,70.50
2018-05-18T06:39:00.803Z,70.90
2018-05-18T06:41:28.341Z,69.00
2018-05-18T06:43:55.877Z,69.50
2018-05-18T06:46:23.421Z,70.00
2018-05-18T06:48:51.538Z,70.30
2018-05-18T06:51:19.089Z,68.10
2018-05-18T06:53:46.631Z,68.70
2018-05-18T06:56:14.167Z,67.60
2018-05-18T06:58:41.782Z,67.10
2018-05-18T07:01:09.253Z,66.90
2018-05-18T07:03:36.792Z,64.50
2018-05-18T07:06:04.348Z,65.70
2018-05-18T07:08:31.878Z,65.80
2018-05-18T07:10:59.436Z,64.60
2018-05-18T07:13:26.975Z,64.50
2018-05-18T07:15:54.545Z,66.30
2018-05-18T07:18:22.850Z,62.80
2018-05-18T07:20:50.389Z,62.70
2018-05-18T07:23:17.923Z,64.50
2018-05-18T07:25:45.467Z,63.80
2018-05-18T07:28:12.991Z,63.30
2018-05-18T07:30:40.540Z,61.80
2018-05-18T07:33:08.064Z,60.90
2018-05-18T07:35:36.367Z,60.90
2018-05-18T07:38:03.916Z,60.90
2018-05-18T07:40:31.458Z,61.20
2018-05-18T07:43:00.235Z,62.60
2018-05-18T07:45:28.558Z,63.20
2018-05-18T07:47:56.116Z,63.00
2018-05-18T07:50:23.651Z,62.10
2018-05-18T07:52:51.190Z,62.60
2018-05-18T07:55:19.543Z,61.40
2018-05-18T07:57:47.088Z,58.70
2018-05-18T08:00:14.653Z,58.30
2018-05-18T08:02:42.195Z,59.80
2018-05-18T08:05:09.720Z,60.60
2018-05-18T08:07:37.255Z,59.60
2018-05-18T08:10:05.548Z,56.50
2018-05-18T08:12:33.091Z,56.50
2018-05-18T08:15:01.825Z,55.10
2018-05-18T08:17:29.382Z,55.10
2018-05-18T08:19:56.910Z,51.80
2018-05-18T08:22:24.453Z,47.70
2018-05-18T08:24:52.755Z,46.70
2018-05-18T08:27:23.091Z,46.70
2018-05-18T08:29:50.607Z,48.70
2018-05-18T08:32:18.164Z,46.20
2018-05-18T08:34:45.786Z,44.00
2018-05-18T08:37:13.343Z,41.70
2018-05-18T08:39:40.855Z,44.10
2018-05-18T08:42:08.400Z,44.00
2018-05-18T08:44:36.699Z,36.60
2018-05-18T08:47:04.235Z,36.40
2018-05-18T08:49:32.538Z,30.60
2018-05-18T08:52:00.079Z,30.60
2018-05-18T08:54:27.591Z,32.80
2018-05-18T08:56:55.152Z,36.00
2018-05-18T08:59:22.681Z,41.00
2018-05-18T09:01:50.288Z,43.40
2018-05-18T09:04:17.853Z,42.00
2018-05-18T09:06:45.394Z,42.00
2018-05-18T09:09:13.721Z,44.40
2018-05-18T09:11:41.290Z,44.40
2018-05-18T09:14:08.841Z,44.10
2018-05-18T09:16:36.391Z,45.30
2018-05-18T09:19:04.689Z,49.30
2018-05-18T09:21:32.222Z,49.10
2018-05-18T09:23:59.768Z,47.90
2018-05-18T09:26:27.347Z,43.20
2018-05-18T09:28:55.624Z,40.70
2018-05-18T09:31:23.149Z,40.70
2018-05-18T09:33:50.746Z,41.50
2018-05-18T09:36:18.270Z,44.50
2018-05-18T09:38:46.576Z,47.90
2018-05-18T09:41:14.661Z,47.80
2018-05-18T09:43:42.213Z,47.70
2018-05-18T09:46:09.743Z,48.30
2018-05-18T09:48:37.281Z,50.20
2018-05-18T09:51:05.595Z,43.00
2018-05-18T09:53:33.144Z,43.00
2018-05-18T09:56:00.696Z,39.80
2018-05-18T09:58:28.231Z,40.30
2018-05-18T10:00:55.759Z,42.30
2018-05-18T10:03:23.295Z,44.70
2018-05-18T10:05:50.815Z,46.10
2018-05-18T10:08:18.380Z,48.50
2018-05-18T10:10:45.904Z,46.20
2018-05-18T10:13:13.419Z,44.80
2018-05-18T10:15:41.729Z,46.40
2018-05-18T10:18:09.244Z,46.40
2018-05-18T10:20:36.786Z,47.60
2018-05-18T10:23:04.317Z,48.80
2018-05-18T10:25:31.867Z,48.80
2018-05-18T10:27:59.404Z,49.80
2018-05-18T10:30:31.780Z,49.10
2018-05-18T10:32:59.317Z,50.60
2018-05-18T10:35:26.867Z,52.20
2018-05-18T10:37:54.391Z,51.20
2018-05-18T10:40:22.700Z,49.90
2018-05-18T10:42:50.233Z,50.00
2018-05-18T10:45:18.776Z,49.90
2018-05-18T10:47:46.263Z,48.70
2018-05-18T10:50:13.795Z,48.90
2018-05-18T10:52:41.329Z,49.30
2018-05-18T10:55:09.646Z,49.30
2018-05-18T10:57:37.171Z,49.30
2018-05-18T11:00:04.707Z,51.40
2018-05-18T11:02:32.245Z,51.30
2018-05-18T11:04:59.788Z,51.70
2018-05-18T11:07:28.073Z,50.70
2018-05-18T11:09:55.650Z,50.70
2018-05-18T11:12:23.196Z,51.80
2018-05-18T11:14:50.734Z,50.30
2018-05-18T11:17:18.272Z,49.90
2018-05-18T11:19:45.837Z,48.10
2018-05-18T11:22:14.126Z,49.00
2018-05-18T11:24:41.688Z,49.00
2018-05-18T11:27:09.309Z,46.70
2018-05-18T11:29:36.839Z,48.40
2018-05-18T11:32:04.377Z,48.30
2018-05-18T11:34:31.896Z,50.00
2018-05-18T11:36:59.437Z,49.40
2018-05-18T11:39:26.974Z,49.50
2018-05-18T11:41:54.508Z,49.90
2018-05-18T11:44:22.028Z,50.60
2018-05-18T11:46:49.576Z,50.90
2018-05-18T11:49:17.110Z,48.30
2018-05-18T11:51:44.645Z,51.30
2018-05-18T11:54:12.931Z,52.60
2018-05-18T11:56:40.463Z,52.50
2018-05-18T11:59:08.752Z,52.90
2018-05-18T12:01:36.297Z,52.90
2018-05-18T12:04:03.820Z,51.50
2018-05-18T12:06:31.383Z,49.80
2018-05-18T12:08:58.900Z,47.30
2018-05-18T12:11:26.433Z,49.30
2018-05-18T12:13:53.959Z,50.00
2018-05-18T12:16:21.499Z,46.90
2018-05-18T12:18:49.016Z,47.30
2018-05-18T12:21:16.581Z,49.60
2018-05-18T12:23:44.107Z,48.40
2018-05-18T12:26:11.723Z,50.20
2018-05-18T12:28:39.208Z,50.90
2018-05-18T12:31:07.512Z,51.20
2018-05-18T12:33:35.225Z,51.10
2018-05-18T12:36:02.806Z,50.00
2018-05-18T12:38:31.098Z,48.90
2018-05-18T12:40:58.907Z,48.90
2018-05-18T12:43:26.459Z,47.70
2018-05-18T12:45:53.988Z,48.20
2018-05-18T12:48:21.524Z,48.00
2018-05-18T12:50:49.811Z,47.70
2018-05-18T12:53:17.343Z,47.60
2018-05-18T12:55:44.867Z,47.70
2018-05-18T12:58:12.396Z,46.70
2018-05-18T13:00:39.920Z,47.00
2018-05-18T13:03:07.467Z,46.00
2018-05-18T13:05:34.984Z,45.90
2018-05-18T13:08:02.577Z,45.30
2018-05-18T13:10:30.093Z,48.90
2018-05-18T13:12:57.631Z,48.30
2018-05-18T13:15:25.183Z,49.30
2018-05-18T13:17:52.736Z,49.60
2018-05-18T13:20:21.033Z,49.90
2018-05-18T13:22:48.732Z,49.90
2018-05-18T13:25:16.253Z,50.70
2018-05-18T13:27:43.808Z,50.50
2018-05-18T13:30:11.345Z,50.40
2018-05-18T13:32:39.671Z,50.10
2018-05-18T13:35:07.197Z,50.00
2018-05-18T13:37:34.728Z,51.30
2018-05-18T13:40:03.026Z,49.80
2018-05-18T13:42:30.575Z,49.70
2018-05-18T13:44:58.918Z,50.90
2018-05-18T13:47:26.429Z,51.00
2018-05-18T13:49:53.952Z,51.80
2018-05-18T13:52:21.519Z,53.30
2018-05-18T13:54:49.063Z,49.60
2018-05-18T13:57:17.434Z,51.30
2018-05-18T13:59:44.907Z,51.30
2018-05-18T14:02:13.199Z,52.10
2018-05-18T14:04:40.745Z,52.00
2018-05-18T14:07:09.027Z,50.10
2018-05-18T14:09:37.341Z,52.00
2018-05-18T14:12:04.869Z,51.90
2018-05-18T14:14:32.415Z,53.70
2018-05-18T14:17:00.710Z,53.10
2018-05-18T14:19:28.257Z,53.10
2018-05-18T14:21:55.775Z,53.50
2018-05-18T14:24:23.315Z,53.50
2018-05-18T14:26:50.848Z,54.40
2018-05-18T14:29:22.094Z,53.50
2018-05-18T14:31:49.618Z,56.00
2018-05-18T14:34:17.168Z,56.00
2018-05-18T14:36:44.712Z,56.40
2018-05-18T14:39:13.041Z,54.20
2018-05-18T14:41:40.568Z,54.10
2018-05-18T14:44:08.879Z,56.50
2018-05-18T14:46:36.425Z,56.50
2018-05-18T14:49:03.972Z,56.70
2018-05-18T14:51:31.509Z,58.10
2018-05-18T14:53:59.827Z,56.90
2018-05-18T14:56:27.364Z,56.90
2018-05-18T14:58:54.920Z,57.70
2018-05-18T15:01:22.444Z,58.30
2018-05-18T15:03:49.999Z,58.60
2018-05-18T15:06:17.516Z,58.20
2018-05-18T15:08:45.080Z,58.40
2018-05-18T15:11:13.374Z,56.90
2018-05-18T15:13:40.910Z,56.80
2018-05-18T15:16:08.460Z,57.50
2018-05-18T15:18:35.992Z,58.90
2018-05-18T15:21:03.536Z,57.30
2018-05-18T15:23:31.848Z,57.30
2018-05-18T15:25:59.387Z,57.30
2018-05-18T15:28:27.673Z,58.90
2018-05-18T15:30:55.228Z,58.90
2018-05-18T15:33:22.752Z,57.70
2018-05-18T15:35:50.305Z,58.20
2018-05-18T15:38:17.837Z,57.40
2018-05-18T15:40:45.373Z,58.90
2018-05-18T15:43:12.901Z,59.00
2018-05-18T15:45:40.443Z,59.00
2018-05-18T15:48:07.969Z,60.30
2018-05-18T15:50:35.534Z,62.40
2018-05-18T15:53:03.079Z,62.70
2018-05-18T15:55:30.681Z,63.30
2018-05-18T15:57:58.976Z,60.60
2018-05-18T16:00:26.520Z,60.60
2018-05-18T16:02:54.809Z,62.40
2018-05-18T16:05:22.356Z,62.40
2018-05-18T16:07:50.665Z,59.80
2018-05-18T16:10:18.208Z,59.80
2018-05-18T16:12:45.739Z,60.60
2018-05-18T16:15:14.060Z,62.80
2018-05-18T16:17:41.605Z,62.80
2018-05-18T16:20:09.172Z,63.70
2018-05-18T16:22:36.749Z,63.60
2018-05-18T16:25:04.290Z,64.80
2018-05-18T16:27:31.835Z,65.40
2018-05-18T16:29:59.361Z,65.30
2018-05-18T16:32:26.908Z,64.60
2018-05-18T16:34:54.428Z,65.20
2018-05-18T16:37:21.980Z,65.60
2018-05-18T16:39:49.501Z,66.00
2018-05-18T16:42:17.816Z,66.10
2018-05-18T16:44:45.339Z,66.10
2018-05-18T16:47:13.653Z,64.40
2018-05-18T16:49:41.180Z,64.30
2018-05-18T16:52:09.476Z,66.90
2018-05-18T16:54:36.992Z,66.10
2018-05-18T16:57:04.528Z,65.80
2018-05-18T16:59:32.066Z,65.60
2018-05-18T17:01:59.621Z,67.90
2018-05-18T17:04:27.915Z,65.80
2018-05-18T17:06:55.457Z,65.60
2018-05-18T17:09:23.292Z,67.30
2018-05-18T17:11:50.853Z,67.20
2018-05-18T17:14:18.372Z,67.70
2018-05-18T17:16:45.906Z,68.90
2018-05-18T17:19:13.438Z,68.70
2018-05-18T17:21:40.975Z,70.20
2018-05-18T17:24:08.505Z,68.60
2018-05-18T17:26:36.710Z,69.50
2018-05-18T17:29:04.233Z,69.50
2018-05-18T17:31:31.831Z,69.70
2018-05-18T17:33:59.355Z,71.00
2018-05-18T17:36:26.913Z,71.10
2018-05-18T17:38:54.434Z,71.80
2018-05-18T17:41:21.958Z,72.30
2018-05-18T17:43:49.496Z,72.40
2018-05-18T17:46:17.878Z,73.20
2018-05-18T17:48:46.204Z,73.00
2018-05-18T17:51:13.724Z,72.90
2018-05-18T17:53:41.267Z,74.30
2018-05-18T17:56:08.803Z,73.40
2018-05-18T17:58:36.348Z,74.30
2018-05-18T18:01:03.878Z,74.80
2018-05-18T18:03:31.433Z,74.80
2018-05-18T18:05:58.973Z,75.50
2018-05-18T18:08:26.531Z,75.00
2018-05-18T18:10:54.051Z,74.20
2018-05-18T18:13:21.584Z,74.80
2018-05-18T18:15:49.099Z,75.60
2018-05-18T18:18:16.645Z,75.60
2018-05-18T18:20:44.951Z,75.70
2018-05-18T18:23:12.529Z,75.70
2018-05-18T18:25:40.051Z,76.50
2018-05-18T18:28:07.593Z,77.20
2018-05-18T18:30:35.120Z,76.70
2018-05-18T18:33:02.659Z,77.00
2018-05-18T18:35:30.179Z,77.40
2018-05-18T18:37:57.712Z,77.40
2018-05-18T18:40:25.244Z,77.40
2018-05-18T18:42:52.789Z,76.60
2018-05-18T18:45:20.321Z,77.20
2018-05-18T18:47:47.872Z,77.10
2018-05-18T18:50:15.404Z,77.30
2018-05-18T18:52:43.716Z,77.30
2018-05-18T18:55:11.351Z,77.30
2018-05-18T18:57:38.907Z,78.10
2018-05-18T19:00:06.458Z,77.20
2018-05-18T19:02:34.776Z,78.50
2018-05-18T19:05:02.338Z,78.50
2018-05-18T19:07:29.868Z,79.00
2018-05-18T19:09:57.418Z,77.50
2018-05-18T19:12:24.952Z,76.90
2018-05-18T19:14:52.522Z,77.50
2018-05-18T19:17:20.079Z,75.90
2018-05-18T19:19:47.616Z,76.80
2018-05-18T19:22:15.156Z,76.90
2018-05-18T19:24:42.695Z,77.60
2018-05-18T19:27:10.243Z,76.60
2018-05-18T19:29:37.831Z,77.70
2018-05-18T19:32:05.344Z,77.00
2018-05-18T19:34:32.893Z,76.90
2018-05-18T19:37:00.432Z,77.30
2018-05-18T19:39:27.968Z,76.90
2018-05-18T19:41:55.487Z,77.40
2018-05-18T19:44:23.044Z,78.00
2018-05-18T19:46:50.585Z,78.10
2018-05-18T19:49:18.904Z,78.60
2018-05-18T19:51:46.431Z,78.50
2018-05-18T19:54:14.011Z,78.40
2018-05-18T19:56:41.558Z,78.80
2018-05-18T19:59:09.110Z,79.20
2018-05-18T20:01:36.733Z,79.40
2018-05-18T20:04:04.313Z,79.90
2018-05-18T20:06:31.855Z,80.00
2018-05-18T20:09:00.147Z,80.50
2018-05-18T20:11:29.277Z,81.00
2018-05-18T20:13:56.807Z,81.00
2018-05-18T20:16:24.352Z,81.20
2018-05-18T20:18:52.631Z,81.40
2018-05-18T20:21:20.187Z,81.30
2018-05-18T20:23:48.476Z,81.00
2018-05-18T20:26:16.023Z,80.90
2018-05-18T20:28:44.321Z,81.10
2018-05-18T20:31:11.864Z,81.10
2018-05-18T20:33:39.390Z,81.20
2018-05-18T20:36:06.959Z,81.10
2018-05-18T20:38:34.491Z,81.80
2018-05-18T20:41:02.039Z,81.90
2018-05-18T20:43:29.579Z,82.10
2018-05-18T20:45:57.124Z,82.30
2018-05-18T20:48:24.656Z,83.10
2018-05-18T20:50:52.984Z,83.10
2018-05-18T20:53:20.519Z,82.90
2018-05-18T20:55:48.068Z,82.60
2018-05-18T20:58:15.600Z,83.20
2018-05-18T21:00:43.979Z,83.80
2018-05-18T21:03:11.503Z,83.80
2018-05-18T21:05:39.104Z,83.80
2018-05-18T21:08:06.627Z,84.00
2018-05-18T21:10:34.177Z,83.80
2018-05-18T21:13:01.723Z,84.20
2018-05-18T21:15:29.289Z,84.30
2018-05-18T21:17:56.825Z,84.80
2018-05-18T21:20:24.387Z,84.30
2018-05-18T21:22:51.941Z,85.00
2018-05-18T21:25:19.463Z,84.90
2018-05-18T21:27:47.788Z,84.40
2018-05-18T21:30:15.367Z,84.40
2018-05-18T21:32:42.903Z,84.50
2018-05-18T21:35:10.495Z,85.00
2018-05-18T21:37:38.809Z,85.10
2018-05-18T21:40:06.353Z,85.00
2018-05-18T21:42:33.927Z,85.70
2018-05-18T21:45:01.452Z,85.50
2018-05-18T21:47:29.774Z,85.40
2018-05-18T21:49:59.111Z,85.40
2018-05-18T21:52:26.738Z,85.80
2018-05-18T21:54:54.272Z,85.40
2018-05-18T21:57:21.846Z,85.60
2018-05-18T21:59:49.445Z,85.30
2018-05-18T22:02:16.995Z,85.30
2018-05-18T22:04:44.517Z,85.20
2018-05-18T22:07:12.117Z,85.30
2018-05-18T22:09:39.632Z,86.40
2018-05-18T22:12:07.184Z,85.30
2018-05-18T22:14:34.712Z,85.90
2018-05-18T22:17:02.272Z,85.60
2018-05-18T22:19:29.817Z,85.90
2018-05-18T22:21:57.351Z,85.60
2018-05-18T22:24:24.877Z,85.90
2018-05-18T22:26:52.637Z,86.00
2018-05-18T22:29:20.992Z,85.70
2018-05-18T22:31:48.520Z,85.70
2018-05-18T22:34:16.074Z,86.00
2018-05-18T22:36:43.614Z,86.00
2018-05-18T22:39:11.173Z,86.30
2018-05-18T22:41:38.719Z,86.60
2018-05-18T22:44:06.284Z,87.20
2018-05-18T22:46:33.827Z,87.40
2018-05-18T22:49:01.368Z,87.30
2018-05-18T22:51:28.902Z,87.50
2018-05-18T22:53:56.453Z,87.40
2018-05-18T22:56:23.983Z,87.00
2018-05-18T22:58:51.529Z,87.10
2018-05-18T23:01:19.056Z,87.20
2018-05-18T23:03:46.616Z,87.40
2018-05-18T23:06:14.166Z,87.10
2018-05-18T23:08:41.728Z,88.10
2018-05-18T23:11:09.673Z,87.30
2018-05-18T23:13:37.983Z,87.00
2018-05-18T23:16:05.511Z,86.90
2018-05-18T23:18:34.225Z,87.90
2018-05-18T23:21:01.749Z,87.70
2018-05-18T23:23:29.299Z,87.90
2018-05-18T23:25:56.822Z,88.20
2018-05-18T23:28:24.374Z,88.10
2018-05-18T23:30:51.905Z,88.50
2018-05-18T23:33:19.466Z,88.50
2018-05-18T23:35:46.996Z,88.30
2018-05-18T23:38:15.312Z,88.60
2018-05-18T23:40:42.843Z,88.50
2018-05-18T23:43:11.146Z,88.50
2018-05-18T23:45:38.688Z,88.50
2018-05-18T23:48:06.210Z,89.10
2018-05-18T23:50:33.747Z,89.30
2018-05-18T23:53:01.339Z,89.20
2018-05-18T23:55:29.653Z,89.20
2018-05-18T23:57:57.943Z,89.10
